Time;durP1;ratioP1;P1;durP2;ratioP2;P2;SDS_P1;SDS_P2;PMS_P1;PMS_P2;Temp;Humidity;BMP_temperature;BMP_pressure;BME280_temperature;BME280_humidity;BME280_pressure;Samples;Min_cycle;Max_cycle;Signal;HPM_P1;HPM_P2
2023/01/26 00:00:18;;;;;;;;;;;0.20;99.90;;;;;;8386735;28;19959;-74
2023/01/26 00:04:20;;;;;;;;;;;0.10;99.90;;;;;;8381496;28;19935;-74
2023/01/26 00:08:21;;;;;;;;;;;0.10;99.90;;;;;;8391378;28;20291;-74
2023/01/26 00:12:23;;;;;;;;;;;0.10;99.90;;;;;;8378212;28;19926;-74
2023/01/26 00:16:25;;;;;;;;;;;0.10;99.90;;;;;;8402630;28;19983;-73
2023/01/26 00:20:27;;;;;;;;;;;0.10;99.90;;;;;;8390721;28;19924;-74
2023/01/26 00:24:29;;;;;;;;;;;0.10;99.90;;;;;;8395911;28;19932;-74
2023/01/26 00:28:31;;;;;;;;;;;0.20;99.90;;;;;;8400807;28;20387;-74
2023/01/26 00:32:33;;;;;;;;;;;0.20;99.90;;;;;;8386485;28;19939;-74
2023/01/26 00:36:36;;;;;;;;;;;0.10;99.90;;;;;;8371114;28;19925;-74
2023/01/26 00:40:38;;;;;;;;;;;0.10;99.90;;;;;;8395042;28;19930;-74
2023/01/26 00:44:41;;;;;;;;;;;0.10;99.90;;;;;;8377071;28;20024;-74
2023/01/26 00:48:42;;;;;;;;;;;0.10;99.90;;;;;;8395126;28;19976;-74
2023/01/26 00:52:44;;;;;;;;;;;0.10;99.90;;;;;;8408624;28;19924;-74
2023/01/26 00:56:46;;;;;;;;;;;0.10;99.90;;;;;;8399717;28;19977;-74
2023/01/26 01:00:47;;;;;;;;;;;0.10;99.90;;;;;;8400334;28;19924;-74
2023/01/26 01:04:49;;;;;;;;;;;0.10;99.90;;;;;;8398753;28;19924;-74
2023/01/26 01:08:51;;;;;;;;;;;0.10;99.90;;;;;;8386921;28;19931;-74
2023/01/26 01:12:52;;;;;;;;;;;0.10;99.90;;;;;;8415183;28;19964;-74
2023/01/26 01:16:54;;;;;;;;;;;0.10;99.90;;;;;;8376033;28;20521;-74
2023/01/26 01:20:56;;;;;;;;;;;0.10;99.90;;;;;;8384394;28;19931;-74
2023/01/26 01:24:57;;;;;;;;;;;0.10;99.90;;;;;;8407875;28;19930;-74
2023/01/26 01:28:59;;;;;;;;;;;0.10;99.90;;;;;;8391726;28;20022;-73
2023/01/26 01:33:00;;;;;;;;;;;0.10;99.90;;;;;;8408957;28;19983;-74
2023/01/26 01:37:02;;;;;;;;;;;0.10;99.90;;;;;;8398874;28;19925;-74
2023/01/26 01:41:04;;;;;;;;;;;0.10;99.90;;;;;;8388889;28;19939;-74
2023/01/26 01:45:24;;;;;;;;;;;0.10;99.90;;;;;;8389103;28;19960;-74
2023/01/26 01:49:26;;;;;;;;;;;0.10;99.90;;;;;;8389086;28;19924;-73
2023/01/26 01:53:30;;;;;;;;;;;0.10;99.90;;;;;;8395946;28;19924;-74
2023/01/26 01:57:43;;;;;;;;;;;0.10;99.90;;;;;;8402848;28;20375;-74
2023/01/26 02:01:46;;;;;;;;;;;0.10;99.90;;;;;;8383213;28;20373;-73
2023/01/26 02:10:53;;;;;;;;;;;0.20;99.90;;;;;;8393329;28;19973;-74
2023/01/26 02:14:55;;;;;;;;;;;0.20;99.90;;;;;;8352610;28;19933;-74
2023/01/26 02:18:57;;;;;;;;;;;0.20;99.90;;;;;;8353000;28;20011;-74
2023/01/26 02:23:04;;;;;;;;;;;0.20;99.90;;;;;;8368674;28;19947;-74
2023/01/26 02:27:05;;;;;;;;;;;0.20;99.90;;;;;;8353939;28;20420;-74
2023/01/26 02:31:08;;;;;;;;;;;0.20;99.90;;;;;;8366274;28;20315;-74
2023/01/26 02:35:09;;;;;;;;;;;0.30;99.90;;;;;;8336803;28;20370;-74
2023/01/26 02:39:26;;;;;;;;;;;0.30;99.90;;;;;;8368653;28;19928;-74
2023/01/26 02:43:28;;;;;;;;;;;0.30;99.90;;;;;;8358988;28;19928;-74
2023/01/26 02:47:30;;;;;;;;;;;0.30;99.90;;;;;;8359758;28;20027;-74
2023/01/26 02:51:31;;;;;;;;;;;0.30;99.90;;;;;;8342774;28;20710;-74
2023/01/26 02:55:33;;;;;;;;;;;0.30;99.90;;;;;;8364683;28;20059;-74
2023/01/26 02:59:35;;;;;;;;;;;0.30;99.90;;;;;;8365839;28;19967;-74
2023/01/26 03:03:43;;;;;;;;;;;0.40;99.90;;;;;;8368319;28;19925;-74
2023/01/26 03:07:45;;;;;;;;;;;0.40;99.90;;;;;;8364355;28;20376;-73
2023/01/26 03:11:47;;;;;;;;;;;0.40;99.90;;;;;;8372508;28;20392;-74
2023/01/26 03:15:53;;;;;;;;;;;0.40;99.90;;;;;;8348310;28;20012;-74
2023/01/26 03:28:35;;;;;;;;;;;0.50;99.90;;;;;;8375684;28;20426;-74
2023/01/26 03:32:37;;;;;;;;;;;0.50;99.90;;;;;;8376755;28;19933;-73
2023/01/26 03:36:38;;;;;;;;;;;0.50;99.90;;;;;;8372740;28;20449;-74
2023/01/26 03:58:01;;;;;;;;;;;0.60;99.90;;;;;;8379197;28;20015;-74
2023/01/26 04:10:45;;;;;;;;;;;0.60;99.90;;;;;;8369459;28;19931;-74
2023/01/26 04:23:27;;;;;;;;;;;0.70;99.90;;;;;;8401441;28;19971;-74
2023/01/26 04:27:28;;;;;;;;;;;0.70;99.90;;;;;;8395150;28;19968;-74
2023/01/26 04:31:30;;;;;;;;;;;0.70;99.90;;;;;;8391773;28;19924;-74
2023/01/26 04:35:32;;;;;;;;;;;0.70;99.90;;;;;;8385901;28;19963;-74
2023/01/26 04:39:34;;;;;;;;;;;0.70;99.90;;;;;;8403586;28;19932;-74
2023/01/26 04:43:36;;;;;;;;;;;0.70;99.90;;;;;;8400980;28;19924;-74
2023/01/26 04:47:37;;;;;;;;;;;0.80;99.90;;;;;;8377879;28;19932;-74
2023/01/26 04:51:39;;;;;;;;;;;0.80;99.90;;;;;;8382274;28;19928;-74
2023/01/26 04:55:40;;;;;;;;;;;0.80;99.90;;;;;;8409059;28;20135;-74
2023/01/26 04:59:42;;;;;;;;;;;0.80;99.90;;;;;;8390115;28;19934;-74
2023/01/26 05:03:44;;;;;;;;;;;0.80;99.90;;;;;;8368050;28;19932;-74
2023/01/26 05:07:49;;;;;;;;;;;0.90;99.90;;;;;;8395471;28;19929;-75
2023/01/26 05:11:50;;;;;;;;;;;0.80;99.90;;;;;;8387569;28;19924;-74
2023/01/26 05:15:52;;;;;;;;;;;0.80;99.90;;;;;;8400016;28;19933;-74
2023/01/26 05:19:54;;;;;;;;;;;0.90;99.90;;;;;;8401986;28;20511;-73
2023/01/26 05:24:03;;;;;;;;;;;0.90;99.90;;;;;;8415527;27;19920;-74
2023/01/26 05:28:04;;;;;;;;;;;0.90;99.90;;;;;;8386775;28;19925;-74
2023/01/26 05:32:06;;;;;;;;;;;0.90;99.90;;;;;;8383249;28;19929;-73
2023/01/26 05:36:08;;;;;;;;;;;0.90;99.90;;;;;;8394328;28;20373;-74
2023/01/26 05:40:10;;;;;;;;;;;0.90;99.90;;;;;;8381146;28;19939;-74
2023/01/26 05:44:12;;;;;;;;;;;0.90;99.90;;;;;;8378757;28;20277;-74
2023/01/26 05:48:14;;;;;;;;;;;0.90;99.90;;;;;;8378717;28;19967;-74
2023/01/26 06:02:40;;;;;;;;;;;1.00;99.90;;;;;;8377698;28;20035;-74
2023/01/26 06:06:42;;;;;;;;;;;1.00;99.90;;;;;;8376087;28;20295;-74
2023/01/26 06:10:43;;;;;;;;;;;1.00;99.90;;;;;;8382520;28;20435;-74
2023/01/26 06:14:45;;;;;;;;;;;1.00;99.90;;;;;;8405800;28;19947;-73
2023/01/26 06:18:48;;;;;;;;;;;1.00;99.90;;;;;;8397600;28;20007;-74
2023/01/26 06:22:50;;;;;;;;;;;1.00;99.90;;;;;;8402829;28;19967;-74
2023/01/26 06:26:52;;;;;;;;;;;1.00;99.90;;;;;;8413514;28;19924;-74
2023/01/26 06:31:03;;;;;;;;;;;1.10;99.90;;;;;;8424920;28;19924;-74
2023/01/26 06:35:05;;;;;;;;;;;1.10;99.90;;;;;;8405418;28;20288;-75
2023/01/26 06:39:09;;;;;;;;;;;1.10;99.90;;;;;;8380838;28;19931;-75
2023/01/26 06:43:10;;;;;;;;;;;1.10;99.90;;;;;;8406177;28;19929;-74
2023/01/26 06:47:13;;;;;;;;;;;1.10;99.90;;;;;;8373727;28;19972;-74
2023/01/26 06:51:15;;;;;;;;;;;1.10;99.90;;;;;;8388954;28;19931;-74
2023/01/26 06:55:20;;;;;;;;;;;1.10;99.90;;;;;;8396494;28;20395;-74
2023/01/26 06:59:22;;;;;;;;;;;1.20;99.90;;;;;;8399549;28;19928;-74
2023/01/26 07:03:24;;;;;;;;;;;1.20;99.90;;;;;;8388963;28;20291;-74
2023/01/26 07:07:25;;;;;;;;;;;1.20;99.90;;;;;;8375357;28;19928;-74
2023/01/26 07:11:29;;;;;;;;;;;1.20;99.90;;;;;;8392780;28;19924;-74
2023/01/26 07:15:31;;;;;;;;;;;1.20;99.90;;;;;;8393868;28;19925;-74
2023/01/26 07:19:33;;;;;;;;;;;1.20;99.90;;;;;;8392403;28;20525;-73
2023/01/26 07:23:34;;;;;;;;;;;1.20;99.90;;;;;;8393841;28;19924;-74
2023/01/26 07:27:36;;;;;;;;;;;1.20;99.90;;;;;;8376752;28;19933;-74
2023/01/26 07:31:38;;;;;;;;;;;1.20;99.90;;;;;;8394330;28;19929;-74
2023/01/26 07:35:46;;;;;;;;;;;1.20;99.90;;;;;;8376788;28;20323;-74
2023/01/26 07:39:47;;;;;;;;;;;1.20;99.90;;;;;;8388753;28;19964;-74
2023/01/26 07:43:50;;;;;;;;;;;1.30;99.90;;;;;;8405319;28;19924;-74
2023/01/26 07:47:55;;;;;;;;;;;1.30;99.90;;;;;;8385687;28;19932;-74
2023/01/26 07:51:57;;;;;;;;;;;1.30;99.90;;;;;;8396451;28;20011;-74
2023/01/26 07:56:06;;;;;;;;;;;1.30;99.90;;;;;;8376022;28;19932;-74
2023/01/26 08:00:07;;;;;;;;;;;1.30;99.90;;;;;;8377606;28;20019;-74
2023/01/26 08:04:11;;;;;;;;;;;1.30;99.90;;;;;;8395329;28;19928;-74
2023/01/26 08:08:12;;;;;;;;;;;1.40;99.90;;;;;;8371908;28;19925;-74
2023/01/26 08:12:14;;;;;;;;;;;1.40;99.90;;;;;;8386762;28;19925;-73
2023/01/26 08:16:16;;;;;;;;;;;1.40;99.90;;;;;;8396346;28;19956;-74
2023/01/26 08:20:18;;;;;;;;;;;1.40;99.90;;;;;;8373456;28;19924;-74
2023/01/26 08:24:19;;;;;;;;;;;1.50;99.90;;;;;;8394299;28;19969;-73
2023/01/26 08:28:21;;;;;;;;;;;1.50;99.90;;;;;;8376259;28;19928;-74
2023/01/26 08:32:23;;;;;;;;;;;1.50;99.90;;;;;;8394063;28;19924;-73
2023/01/26 08:36:24;;;;;;;;;;;1.60;99.90;;;;;;8374448;28;20384;-74
2023/01/26 08:40:26;;;;;;;;;;;1.60;99.90;;;;;;8395623;28;19975;-74
2023/01/26 08:44:28;;;;;;;;;;;1.70;99.90;;;;;;8370401;28;19978;-74
2023/01/26 08:48:30;;;;;;;;;;;1.70;99.90;;;;;;8388394;28;20410;-73
2023/01/26 08:52:32;;;;;;;;;;;1.80;99.90;;;;;;8396436;28;20019;-74
2023/01/26 08:56:33;;;;;;;;;;;1.80;99.90;;;;;;8374282;28;19924;-74
2023/01/26 09:00:36;;;;;;;;;;;1.90;99.90;;;;;;8393683;28;19931;-74
2023/01/26 09:04:37;;;;;;;;;;;2.00;99.90;;;;;;8391547;28;19925;-74
2023/01/26 09:08:39;;;;;;;;;;;2.00;99.90;;;;;;8397666;28;20481;-73
2023/01/26 09:12:40;;;;;;;;;;;2.00;99.90;;;;;;8392103;28;20376;-74
2023/01/26 09:16:42;;;;;;;;;;;2.10;99.90;;;;;;8374307;28;19939;-73
2023/01/26 09:25:59;;;;;;;;;;;2.20;99.90;;;;;;8381105;28;19927;-74
2023/01/26 09:30:02;;;;;;;;;;;2.30;99.90;;;;;;8395869;28;19924;-74
2023/01/26 09:34:04;;;;;;;;;;;2.40;99.90;;;;;;8393007;28;19967;-74
2023/01/26 09:38:05;;;;;;;;;;;2.50;99.90;;;;;;8374420;28;20411;-74
2023/01/26 09:42:10;;;;;;;;;;;2.60;99.90;;;;;;8392529;28;19924;-74
2023/01/26 09:46:14;;;;;;;;;;;2.70;99.90;;;;;;8388522;28;19960;-74
2023/01/26 09:50:39;;;;;;;;;;;2.80;99.90;;;;;;8397519;28;20000;-74
2023/01/26 09:55:02;;;;;;;;;;;2.90;99.90;;;;;;8363936;28;19971;-74
2023/01/26 09:59:22;;;;;;;;;;;3.10;99.90;;;;;;8369975;28;20383;-74
2023/01/26 10:03:27;;;;;;;;;;;3.20;99.90;;;;;;8386089;28;20928;-74
2023/01/26 10:07:29;;;;;;;;;;;3.40;99.90;;;;;;8395134;28;19924;-73
2023/01/26 10:11:40;;;;;;;;;;;3.50;99.90;;;;;;8393096;28;19935;-74
2023/01/26 10:15:43;;;;;;;;;;;3.70;99.90;;;;;;8380459;28;19978;-74
2023/01/26 10:19:49;;;;;;;;;;;3.80;99.90;;;;;;8395786;28;19978;-74
2023/01/26 10:23:51;;;;;;;;;;;4.00;99.90;;;;;;8390037;28;19955;-74
2023/01/26 10:27:53;;;;;;;;;;;4.20;99.90;;;;;;8394053;28;20376;-74
2023/01/26 10:31:54;;;;;;;;;;;4.50;99.90;;;;;;8396449;28;19928;-74
2023/01/26 10:35:56;;;;;;;;;;;5.00;99.90;;;;;;8392617;28;19930;-73
2023/01/26 10:40:03;;;;;;;;;;;5.50;99.90;;;;;;8398211;28;19931;-74
2023/01/26 10:44:13;;;;;;;;;;;6.10;99.90;;;;;;8397652;28;19924;-74
2023/01/26 10:48:25;;;;;;;;;;;6.70;99.90;;;;;;8364443;28;19931;-74
2023/01/26 10:52:27;;;;;;;;;;;7.30;99.90;;;;;;8398449;28;20441;-74
2023/01/26 10:56:28;;;;;;;;;;;8.00;99.90;;;;;;8377689;28;19924;-74
2023/01/26 11:00:32;;;;;;;;;;;8.60;99.90;;;;;;8375910;28;20334;-74
2023/01/26 11:04:33;;;;;;;;;;;9.00;99.90;;;;;;8393081;28;20384;-74
2023/01/26 11:08:36;;;;;;;;;;;9.60;99.90;;;;;;8372689;28;19991;-74
2023/01/26 11:12:38;;;;;;;;;;;10.10;99.90;;;;;;8408750;28;19932;-74
2023/01/26 11:16:43;;;;;;;;;;;10.70;99.90;;;;;;8379069;28;19976;-75
2023/01/26 11:20:47;;;;;;;;;;;10.90;99.90;;;;;;8392422;28;19933;-74
2023/01/26 11:24:55;;;;;;;;;;;10.80;99.90;;;;;;8380417;28;20384;-74
2023/01/26 11:29:15;;;;;;;;;;;10.40;99.90;;;;;;8392639;28;19932;-74
2023/01/26 11:33:28;;;;;;;;;;;10.00;99.90;;;;;;8388093;28;19932;-74
2023/01/26 11:37:41;;;;;;;;;;;9.60;99.90;;;;;;8386384;28;19924;-74
2023/01/26 11:41:58;;;;;;;;;;;9.30;99.90;;;;;;8389971;28;20612;-74
2023/01/26 11:46:07;;;;;;;;;;;9.00;99.90;;;;;;8384068;28;19982;-74
2023/01/26 11:50:15;;;;;;;;;;;8.90;99.90;;;;;;8392196;28;19929;-74
2023/01/26 11:54:22;;;;;;;;;;;8.80;99.90;;;;;;8378345;28;19978;-74
2023/01/26 11:58:43;;;;;;;;;;;8.70;99.90;;;;;;8394065;28;20003;-73
2023/01/26 12:02:48;;;;;;;;;;;8.70;99.90;;;;;;8372770;28;19925;-74
2023/01/26 12:06:54;;;;;;;;;;;8.90;99.90;;;;;;8378775;28;19964;-73
2023/01/26 12:11:21;;;;;;;;;;;9.00;99.90;;;;;;8377639;28;19924;-74
2023/01/26 12:15:27;;;;;;;;;;;9.20;99.90;;;;;;8377085;28;19925;-74
2023/01/26 12:19:44;;;;;;;;;;;9.60;99.90;;;;;;8391990;28;19964;-74
2023/01/26 12:23:48;;;;;;;;;;;10.30;99.90;;;;;;8386010;28;19924;-74
2023/01/26 12:27:54;;;;;;;;;;;11.10;99.90;;;;;;8383444;28;20285;-74
2023/01/26 12:31:56;;;;;;;;;;;11.80;99.90;;;;;;8370481;28;19932;-74
2023/01/26 12:36:16;;;;;;;;;;;12.50;99.90;;;;;;8384083;28;19932;-75
2023/01/26 12:40:24;;;;;;;;;;;13.10;99.90;;;;;;8372151;28;20299;-74
2023/01/26 12:44:28;;;;;;;;;;;13.70;99.90;;;;;;8359195;28;19979;-74
2023/01/26 12:48:30;;;;;;;;;;;13.80;99.90;;;;;;8371547;28;20284;-74
2023/01/26 12:53:01;;;;;;;;;;;13.90;99.90;;;;;;8376017;28;19924;-74
2023/01/26 12:57:05;;;;;;;;;;;13.80;99.90;;;;;;8374326;28;19939;-74
2023/01/26 13:01:09;;;;;;;;;;;13.50;99.90;;;;;;8376883;28;19929;-74
2023/01/26 13:05:22;;;;;;;;;;;13.50;99.90;;;;;;8394925;28;19932;-74
2023/01/26 13:09:24;;;;;;;;;;;13.50;99.90;;;;;;8392494;28;19932;-74
2023/01/26 13:13:28;;;;;;;;;;;13.20;99.90;;;;;;8391740;28;19924;-74
2023/01/26 13:17:40;;;;;;;;;;;13.60;99.90;;;;;;8396303;28;19931;-74
2023/01/26 13:21:43;;;;;;;;;;;14.20;99.90;;;;;;8397070;28;19951;-74
2023/01/26 13:25:47;;;;;;;;;;;14.60;99.90;;;;;;8393664;28;19929;-74
2023/01/26 13:29:56;;;;;;;;;;;15.10;99.90;;;;;;8386566;28;19925;-74
2023/01/26 13:34:00;;;;;;;;;;;15.10;99.90;;;;;;8364128;28;19975;-75
2023/01/26 13:38:07;;;;;;;;;;;14.90;99.90;;;;;;8386244;28;19935;-75
2023/01/26 13:42:21;;;;;;;;;;;14.40;99.90;;;;;;8392449;28;19938;-74
2023/01/26 13:46:30;;;;;;;;;;;13.60;99.90;;;;;;8385583;28;19947;-73
2023/01/26 13:50:37;;;;;;;;;;;12.70;99.90;;;;;;8379885;28;19928;-73
2023/01/26 13:54:41;;;;;;;;;;;12.30;99.90;;;;;;8380321;28;19970;-73
2023/01/26 13:58:42;;;;;;;;;;;12.10;99.90;;;;;;8397622;28;19981;-74
2023/01/26 14:02:48;;;;;;;;;;;12.00;99.90;;;;;;8401374;28;19976;-74
2023/01/26 14:07:05;;;;;;;;;;;11.60;99.90;;;;;;8396049;28;20362;-74
2023/01/26 14:11:15;;;;;;;;;;;11.30;99.90;;;;;;8376209;28;19924;-74
2023/01/26 14:15:19;;;;;;;;;;;11.10;99.90;;;;;;8372208;28;19928;-74
2023/01/26 14:19:21;;;;;;;;;;;11.00;99.90;;;;;;8375788;28;19924;-74
2023/01/26 14:23:27;;;;;;;;;;;10.80;99.90;;;;;;8369407;28;19925;-74
2023/01/26 14:27:29;;;;;;;;;;;10.70;99.90;;;;;;8370835;28;19928;-74
2023/01/26 14:31:31;;;;;;;;;;;10.70;99.90;;;;;;8371900;28;19932;-74
2023/01/26 14:35:33;;;;;;;;;;;10.60;99.90;;;;;;8367591;28;19932;-74
2023/01/26 14:39:34;;;;;;;;;;;10.50;99.90;;;;;;8361912;28;19925;-74
2023/01/26 14:43:36;;;;;;;;;;;10.40;99.90;;;;;;8365905;28;20556;-74
2023/01/26 14:47:39;;;;;;;;;;;10.40;99.90;;;;;;8361065;28;19924;-74
2023/01/26 14:51:42;;;;;;;;;;;10.20;99.90;;;;;;8361405;28;20414;-74
2023/01/26 14:55:44;;;;;;;;;;;10.10;99.90;;;;;;8363339;28;20293;-74
2023/01/26 14:59:50;;;;;;;;;;;9.90;99.90;;;;;;8366595;28;19959;-75
2023/01/26 15:04:17;;;;;;;;;;;9.90;99.90;;;;;;8375099;28;20011;-74
2023/01/26 15:08:20;;;;;;;;;;;9.80;99.90;;;;;;8375484;28;20344;-73
2023/01/26 15:12:22;;;;;;;;;;;9.60;99.90;;;;;;8370293;28;19990;-74
2023/01/26 15:16:25;;;;;;;;;;;9.50;99.90;;;;;;8360296;28;19928;-73
2023/01/26 15:20:26;;;;;;;;;;;9.40;99.90;;;;;;8366341;28;19925;-74
2023/01/26 15:24:28;;;;;;;;;;;9.30;99.90;;;;;;8364280;28;19963;-74
2023/01/26 15:28:30;;;;;;;;;;;9.20;99.90;;;;;;8349925;28;19979;-74
2023/01/26 15:32:38;;;;;;;;;;;9.20;99.90;;;;;;8366861;28;19924;-74
2023/01/26 15:36:47;;;;;;;;;;;9.10;99.90;;;;;;8367479;28;20011;-74
2023/01/26 15:40:48;;;;;;;;;;;9.00;99.90;;;;;;8367013;28;20051;-74
2023/01/26 15:44:50;;;;;;;;;;;8.90;99.90;;;;;;8363953;28;20015;-74
2023/01/26 15:48:52;;;;;;;;;;;8.90;99.90;;;;;;8354380;28;19932;-74
2023/01/26 15:52:53;;;;;;;;;;;8.80;99.90;;;;;;8364208;28;19925;-74
2023/01/26 15:56:55;;;;;;;;;;;8.80;99.90;;;;;;8362003;28;20411;-75
2023/01/26 16:00:57;;;;;;;;;;;8.70;99.90;;;;;;8360960;28;19970;-74
2023/01/26 16:04:58;;;;;;;;;;;8.60;99.90;;;;;;8366324;28;19928;-75
2023/01/26 16:09:00;;;;;;;;;;;8.60;99.90;;;;;;8366864;28;19933;-74
2023/01/26 16:13:07;;;;;;;;;;;8.60;99.90;;;;;;8356377;28;19933;-74
2023/01/26 16:17:17;;;;;;;;;;;8.60;99.90;;;;;;8360592;28;19924;-74
2023/01/26 16:21:24;;;;;;;;;;;8.50;99.90;;;;;;8363113;28;19931;-74
2023/01/26 16:25:27;;;;;;;;;;;8.40;99.90;;;;;;8346273;28;19932;-74
2023/01/26 16:29:28;;;;;;;;;;;8.30;99.90;;;;;;8368484;28;19932;-74
2023/01/26 16:33:30;;;;;;;;;;;8.20;99.90;;;;;;8360918;28;19935;-74
2023/01/26 16:37:31;;;;;;;;;;;8.20;99.90;;;;;;8359321;28;20448;-74
2023/01/26 16:41:33;;;;;;;;;;;8.10;99.90;;;;;;8357781;28;20353;-74
2023/01/26 16:45:34;;;;;;;;;;;8.10;99.90;;;;;;8346200;28;19924;-74
2023/01/26 16:49:36;;;;;;;;;;;8.10;99.90;;;;;;8364514;28;19968;-74
2023/01/26 16:53:38;;;;;;;;;;;8.10;99.90;;;;;;8355960;28;19931;-73
2023/01/26 16:57:40;;;;;;;;;;;8.00;99.90;;;;;;8379133;28;19932;-74
2023/01/26 17:01:42;;;;;;;;;;;8.00;99.90;;;;;;8344481;28;19929;-74
2023/01/26 17:05:44;;;;;;;;;;;8.00;99.90;;;;;;8359658;28;20042;-74
2023/01/26 17:09:45;;;;;;;;;;;7.90;99.90;;;;;;8365825;28;20371;-74
2023/01/26 17:13:47;;;;;;;;;;;7.90;99.90;;;;;;8351047;28;19951;-74
2023/01/26 17:17:49;;;;;;;;;;;7.90;99.90;;;;;;8365598;28;19932;-74
2023/01/26 17:21:51;;;;;;;;;;;8.00;99.90;;;;;;8365090;28;19943;-74
2023/01/26 17:25:56;;;;;;;;;;;7.90;99.90;;;;;;8362537;28;19967;-74
2023/01/26 17:29:58;;;;;;;;;;;7.90;99.90;;;;;;8367238;28;19963;-74
2023/01/26 17:34:00;;;;;;;;;;;7.90;99.90;;;;;;8343345;28;20252;-74
2023/01/26 17:38:01;;;;;;;;;;;7.80;99.90;;;;;;8343380;28;19928;-74
2023/01/26 17:42:03;;;;;;;;;;;7.80;99.90;;;;;;8346656;28;19933;-74
2023/01/26 17:46:12;;;;;;;;;;;7.70;99.90;;;;;;8351889;28;19933;-74
2023/01/26 17:50:14;;;;;;;;;;;7.70;99.90;;;;;;8377503;28;19935;-74
2023/01/26 17:54:15;;;;;;;;;;;7.70;99.90;;;;;;8349805;28;20059;-74
2023/01/26 17:58:17;;;;;;;;;;;7.70;99.90;;;;;;8366845;28;19976;-74
2023/01/26 18:02:19;;;;;;;;;;;7.70;99.90;;;;;;8363927;28;19971;-74
2023/01/26 18:06:20;;;;;;;;;;;7.70;99.90;;;;;;8354849;28;19928;-74
2023/01/26 18:10:22;;;;;;;;;;;7.70;99.90;;;;;;8359733;28;19971;-74
2023/01/26 18:14:24;;;;;;;;;;;7.70;99.90;;;;;;8340861;28;24513;-74
2023/01/26 18:18:26;;;;;;;;;;;7.60;99.90;;;;;;8341952;28;19929;-74
2023/01/26 18:22:28;;;;;;;;;;;7.60;99.90;;;;;;8345546;28;20054;-74
2023/01/26 18:26:31;;;;;;;;;;;7.60;99.90;;;;;;8355508;28;20365;-74
2023/01/26 18:30:33;;;;;;;;;;;7.60;99.90;;;;;;8373027;28;19971;-74
2023/01/26 18:34:34;;;;;;;;;;;7.60;99.90;;;;;;8370443;28;19929;-74
2023/01/26 18:38:39;;;;;;;;;;;7.50;99.90;;;;;;8357552;28;19924;-74
2023/01/26 18:42:40;;;;;;;;;;;7.50;99.90;;;;;;8368350;28;19971;-74
2023/01/26 18:46:42;;;;;;;;;;;7.50;99.90;;;;;;8359808;28;19967;-74
2023/01/26 18:50:47;;;;;;;;;;;7.50;99.90;;;;;;8361402;28;19956;-74
2023/01/26 18:54:49;;;;;;;;;;;7.50;99.90;;;;;;8360235;28;19933;-74
2023/01/26 18:58:51;;;;;;;;;;;7.50;99.90;;;;;;8370005;28;19960;-74
2023/01/26 19:02:53;;;;;;;;;;;7.40;99.90;;;;;;8354751;28;19933;-74
2023/01/26 19:06:55;;;;;;;;;;;7.40;99.90;;;;;;8363288;28;19986;-74
2023/01/26 19:11:02;;;;;;;;;;;7.40;99.90;;;;;;8344430;28;19928;-74
2023/01/26 19:15:04;;;;;;;;;;;7.30;99.90;;;;;;8362235;28;20339;-73
2023/01/26 19:19:06;;;;;;;;;;;7.30;99.90;;;;;;8376288;28;20403;-74
2023/01/26 19:23:08;;;;;;;;;;;7.30;99.90;;;;;;8376524;28;20027;-74
2023/01/26 19:27:10;;;;;;;;;;;7.30;99.90;;;;;;8376422;28;19928;-74
2023/01/26 19:31:12;;;;;;;;;;;7.20;99.90;;;;;;8368936;28;19964;-74
2023/01/26 19:35:13;;;;;;;;;;;7.20;99.90;;;;;;8369347;28;19939;-74
2023/01/26 19:39:15;;;;;;;;;;;7.20;99.90;;;;;;8368258;28;19924;-74
2023/01/26 19:43:18;;;;;;;;;;;7.20;99.90;;;;;;8357353;28;20015;-74
2023/01/26 19:47:19;;;;;;;;;;;7.20;99.90;;;;;;8362120;28;19963;-74
2023/01/26 19:51:22;;;;;;;;;;;7.20;99.90;;;;;;8367386;28;19931;-74
2023/01/26 19:55:24;;;;;;;;;;;7.10;99.90;;;;;;8367122;28;20010;-74
2023/01/26 19:59:26;;;;;;;;;;;7.10;99.90;;;;;;8365796;28;20002;-74
2023/01/26 20:03:27;;;;;;;;;;;7.10;99.90;;;;;;8380348;28;20027;-74
2023/01/26 20:07:29;;;;;;;;;;;7.10;99.90;;;;;;8365267;28;20027;-74
2023/01/26 20:11:31;;;;;;;;;;;7.10;99.90;;;;;;8367768;28;19936;-74
2023/01/26 20:15:35;;;;;;;;;;;7.10;99.90;;;;;;8366370;28;20280;-74
2023/01/26 20:19:37;;;;;;;;;;;7.00;99.90;;;;;;8355008;28;19970;-74
2023/01/26 20:23:39;;;;;;;;;;;7.00;99.90;;;;;;8348090;28;19925;-74
2023/01/26 20:32:35;;;;;;;;;;;6.90;99.90;;;;;;8361856;28;19964;-74
2023/01/26 20:36:39;;;;;;;;;;;6.90;99.90;;;;;;8360848;28;19924;-74
2023/01/26 20:40:40;;;;;;;;;;;6.80;99.90;;;;;;8348099;28;19932;-74
2023/01/26 20:44:42;;;;;;;;;;;6.80;99.90;;;;;;8321128;28;19945;-74
2023/01/26 20:48:44;;;;;;;;;;;6.80;99.90;;;;;;8334627;28;19959;-74
2023/01/26 20:52:46;;;;;;;;;;;6.80;99.90;;;;;;8322510;28;19939;-74
2023/01/26 20:56:50;;;;;;;;;;;6.70;99.90;;;;;;8341053;28;19933;-74
2023/01/26 21:00:51;;;;;;;;;;;6.70;99.90;;;;;;8339476;28;19968;-74
2023/01/26 21:04:53;;;;;;;;;;;6.60;99.90;;;;;;8346044;28;19950;-74
2023/01/26 21:08:56;;;;;;;;;;;6.60;99.90;;;;;;8328848;28;19928;-74
2023/01/26 21:12:57;;;;;;;;;;;6.50;99.90;;;;;;8355063;28;19935;-74
2023/01/26 21:16:59;;;;;;;;;;;6.40;99.90;;;;;;8354047;28;20023;-73
2023/01/26 21:21:02;;;;;;;;;;;6.30;99.90;;;;;;8354564;28;19933;-75
2023/01/26 21:25:04;;;;;;;;;;;6.20;99.90;;;;;;8350199;28;19939;-73
2023/01/26 21:29:06;;;;;;;;;;;6.10;99.90;;;;;;8369283;28;19964;-74
2023/01/26 21:33:09;;;;;;;;;;;6.00;99.90;;;;;;8356498;28;19994;-74
2023/01/26 21:37:11;;;;;;;;;;;5.90;99.90;;;;;;8351491;28;19975;-74
2023/01/26 21:45:53;;;;;;;;;;;5.80;99.90;;;;;;8349161;28;19938;-74
2023/01/26 21:49:57;;;;;;;;;;;5.70;99.90;;;;;;8364157;28;19928;-74
2023/01/26 21:54:00;;;;;;;;;;;5.70;99.90;;;;;;8352860;28;20110;-74
2023/01/26 22:02:22;;;;;;;;;;;5.60;99.90;;;;;;8362059;28;19924;-75
2023/01/26 22:06:24;;;;;;;;;;;5.60;99.90;;;;;;8371951;28;20043;-73
2023/01/26 22:10:25;;;;;;;;;;;5.60;99.90;;;;;;8372265;28;20541;-74
2023/01/26 22:14:27;;;;;;;;;;;5.60;99.90;;;;;;8370619;28;19933;-74
2023/01/26 22:18:29;;;;;;;;;;;5.60;99.90;;;;;;8360308;28;19938;-74
2023/01/26 22:22:30;;;;;;;;;;;5.60;99.90;;;;;;8362965;28;19994;-74
2023/01/26 22:26:32;;;;;;;;;;;5.60;99.90;;;;;;8366607;28;19924;-74
2023/01/26 22:30:34;;;;;;;;;;;5.70;99.90;;;;;;8375156;28;20071;-74
2023/01/26 22:34:36;;;;;;;;;;;5.70;99.90;;;;;;8370655;28;19936;-74
2023/01/26 22:38:38;;;;;;;;;;;5.70;99.90;;;;;;8346766;28;20315;-74
2023/01/26 22:42:39;;;;;;;;;;;5.80;99.90;;;;;;8367466;28;19935;-74
2023/01/26 22:51:23;;;;;;;;;;;5.90;99.90;;;;;;8356533;28;19932;-74
2023/01/26 22:55:25;;;;;;;;;;;5.90;99.90;;;;;;8347842;28;20014;-74
2023/01/26 22:59:26;;;;;;;;;;;6.00;99.90;;;;;;8347649;28;19933;-73
2023/01/26 23:03:28;;;;;;;;;;;6.00;99.90;;;;;;8374735;28;20493;-74
2023/01/26 23:07:30;;;;;;;;;;;5.90;99.90;;;;;;8361830;28;20315;-74
2023/01/26 23:11:31;;;;;;;;;;;5.90;99.90;;;;;;8363040;28;20015;-74
2023/01/26 23:15:33;;;;;;;;;;;5.90;99.90;;;;;;8343878;28;19928;-74
2023/01/26 23:19:35;;;;;;;;;;;5.80;99.90;;;;;;8362202;28;19932;-75
2023/01/26 23:23:37;;;;;;;;;;;5.80;99.90;;;;;;8360975;28;22023;-74
2023/01/26 23:27:39;;;;;;;;;;;5.90;99.90;;;;;;8362725;28;20000;-74
2023/01/26 23:31:40;;;;;;;;;;;5.80;99.90;;;;;;8364604;28;20478;-74
2023/01/26 23:35:42;;;;;;;;;;;5.90;99.90;;;;;;8363263;28;19928;-74
2023/01/26 23:39:44;;;;;;;;;;;5.90;99.90;;;;;;8365536;28;19936;-74
2023/01/26 23:43:45;;;;;;;;;;;5.90;99.90;;;;;;8344730;28;20047;-74
2023/01/26 23:47:47;;;;;;;;;;;5.90;99.90;;;;;;8362186;28;19932;-74
2023/01/26 23:51:49;;;;;;;;;;;6.00;99.90;;;;;;8367628;28;20583;-74
2023/01/26 23:55:50;;;;;;;;;;;6.00;99.90;;;;;;8356490;28;20475;-74
2023/01/26 23:59:52;;;;;;;;;;;5.90;99.90;;;;;;8363073;28;19932;-74
